Humidity-temperature Sensor

Selected Measurement Type: Relative Humidity

 
Relative Humidity [%]     6 entries per hour
Showing data from 4/12/2024 (00:00:00 Z) to 4/9/2024 (00:01:00 Z)
Previous Next [ Day | 3-Days | 7-Days ]
First Last
Prev [ Day | 3-Days | 7-Days ] Next
First Last

Start Time:     :
End Time:     :     
Time (in GMT) :00 :50 :40 :30 :20 :10
Previous Next [ Day | 3-Days | 7-Days ]
First Last
Prev [ Day | 3-Days | 7-Days ] Next
First Last


123 => good data
MM => data is determined as missing
-- => data not received/configured
Back to Top Back to Top
4/12/2024 00:00 to 23:10 84.88 84.51 84.82 84.74 85.34 86.36
4/11/2024 23:00 to 22:10 85.98 85.66 86.22 86.28 86.38 87.55
4/11/2024 22:00 to 21:10 87.57 88.35 87.49 87.49 87.29 87.15
4/11/2024 21:00 to 20:10 86.67 87.11 87.35 87.77 89.02 88.55
4/11/2024 20:00 to 19:10 88.88 88.53 88.33 87.91 88.57 87.85
4/11/2024 19:00 to 18:10 88.05 88.78 89.32 89.24 89.80 90.02
4/11/2024 18:00 to 17:10 89.44 88.80 89.04 89.00 89.30 89.24
4/11/2024 17:00 to 16:10 89.02 89.86 88.72 89.50 88.66 89.22
4/11/2024 16:00 to 15:10 89.44 88.80 88.60 88.21 89.00 90.12
4/11/2024 15:00 to 14:10 89.72 89.80 89.74 89.02 88.35 89.48
4/11/2024 14:00 to 13:10 88.25 89.84 89.82 89.64 89.74 89.90
4/11/2024 13:00 to 12:10 88.86 88.19 88.29 89.02 90.08 89.62
4/11/2024 12:00 to 11:10 91.15 91.13 91.27 91.03 91.19 91.11
4/11/2024 11:00 to 10:10 91.41 91.93 91.57 91.91 91.45 91.15
4/11/2024 10:00 to 9:10 91.15 90.99 90.59 90.10 90.26 91.07
4/11/2024 09:00 to 8:10 92.86 92.25 91.99 91.23 92.05 91.53
4/11/2024 08:00 to 7:10 91.11 90.79 91.27 92.05 92.47 92.70
4/11/2024 07:00 to 6:10 93.42 92.47 92.03 92.62 92.50 92.47
4/11/2024 06:00 to 5:10 92.11 91.53 91.77 92.64 93.38 93.08
4/11/2024 05:00 to 4:10 93.52 93.30 93.62 94.75 95.55 95.13
4/11/2024 04:00 to 3:10 94.79 94.59 94.69 94.91 94.85 94.77
4/11/2024 03:00 to 2:10 94.45 94.26 94.24 94.10 94.16 93.86
4/11/2024 02:00 to 1:10 93.50 93.30 92.94 93.16 93.38 93.76
4/11/2024 01:00 to 0:10 93.30 92.19 92.41 92.21 92.07 91.85
4/11/2024 00:00 to 23:10 91.67 91.49 90.95 90.14 90.42 91.97
4/10/2024 23:00 to 22:10 92.68 92.86 93.38 93.18 92.68 92.64
4/10/2024 22:00 to 21:10 92.47 92.78 92.84 93.90 93.96 93.74
4/10/2024 21:00 to 20:10 93.52 94.08 94.08 94.04 94.65 95.49
4/10/2024 20:00 to 19:10 95.75 95.41 95.27 95.13 94.87 94.36
4/10/2024 19:00 to 18:10 93.90 93.40 93.40 92.76 91.65 91.05
4/10/2024 18:00 to 17:10 91.95 92.43 94.30 95.77 93.68 93.00
4/10/2024 17:00 to 16:10 92.19 91.25 92.33 95.19 95.29 95.09
4/10/2024 16:00 to 15:10 94.93 94.95 95.59 95.69 95.53 95.61
4/10/2024 15:00 to 14:10 95.47 95.51 95.81 96.52 97.14 97.42
4/10/2024 14:00 to 13:10 97.72 97.68 97.76 97.88 97.66 97.06
4/10/2024 13:00 to 12:10 96.56 94.79 94.83 94.99 95.09 94.85
4/10/2024 12:00 to 11:10 94.32 94.12 93.36 93.10 93.52 95.59
4/10/2024 11:00 to 10:10 96.62 96.80 96.15 95.47 95.39 95.61
4/10/2024 10:00 to 9:10 96.27 96.66 96.88 96.96 96.76 96.86
4/10/2024 09:00 to 8:10 97.10 97.06 97.02 96.86 97.02 97.68
4/10/2024 08:00 to 7:10 98.51 99.03 99.23 99.43 99.23 98.73
4/10/2024 07:00 to 6:10 98.71 98.55 98.77 98.69 98.47 97.40
4/10/2024 06:00 to 5:10 96.58 96.07 96.58 96.76 96.98 96.86
4/10/2024 05:00 to 4:10 96.23 95.19 94.20 93.80 93.30 93.00
4/10/2024 04:00 to 3:10 92.70 92.05 92.35 93.82 94.93 94.65
4/10/2024 03:00 to 2:10 94.65 95.23 96.19 95.87 95.79 95.73
4/10/2024 02:00 to 1:10 95.69 94.75 94.00 92.49 91.35 91.57
4/10/2024 01:00 to 0:10 91.29 90.99 90.93 90.89 90.89 90.97
4/10/2024 00:00 to 23:10 90.91 90.75 90.85 91.05 90.93 90.81
4/9/2024 23:00 to 22:10 91.01 91.19 90.95 90.97 91.65 91.27
4/9/2024 22:00 to 21:10 91.59 91.17 91.05 90.87 90.63 91.07
4/9/2024 21:00 to 20:10 91.67 91.49 91.73 91.35 91.41 91.21
4/9/2024 20:00 to 19:10 91.45 92.27 92.23 92.23 92.07 92.05
4/9/2024 19:00 to 18:10 91.95 92.33 92.60 92.56 92.29 92.52
4/9/2024 18:00 to 17:10 92.17 92.23 92.27 92.09 91.91 91.97
4/9/2024 17:00 to 16:10 92.41 92.80 93.16 93.40 93.42 93.14
4/9/2024 16:00 to 15:10 93.04 93.02 93.14 93.12 92.88 92.84
4/9/2024 15:00 to 14:10 93.00 92.49 92.60 92.78 92.68 92.96
4/9/2024 14:00 to 13:10 92.98 93.60 94.32 94.45 94.26 94.12
4/9/2024 13:00 to 12:10 94.00 93.96 94.34 94.28 94.12 93.64
4/9/2024 12:00 to 11:10 93.52 93.30 93.48 93.50 93.42 93.06
4/9/2024 11:00 to 10:10 93.02 93.04 93.08 92.29 92.72 92.47
4/9/2024 10:00 to 9:10 92.80 92.45 92.39 92.31 91.63 91.89
4/9/2024 09:00 to 8:10 92.25 91.73 91.95 91.71 91.75 91.71
4/9/2024 08:00 to 7:10 91.87 91.95 92.23 91.81 91.81 92.03
4/9/2024 07:00 to 6:10 92.64 91.75 91.33 91.27 91.35 91.61
4/9/2024 06:00 to 5:10 91.15 91.19 90.89 91.11 91.71 91.55
4/9/2024 05:00 to 4:10 92.19 91.83 92.23 91.99 91.95 91.41
4/9/2024 04:00 to 3:10 91.03 90.79 91.93 91.89 91.41 91.23
4/9/2024 03:00 to 2:10 90.81 90.28 90.65 89.96 89.28 89.02
4/9/2024 02:00 to 1:10 89.82 90.16 90.04 90.89 90.59 89.98
4/9/2024 01:00 to 0:10 90.08 89.54 89.10 88.86 88.37 87.79